Time;durP1;ratioP1;P1;durP2;ratioP2;P2;SDS_P1;SDS_P2;PMS_P1;PMS_P2;Temp;Humidity;BMP_temperature;BMP_pressure;BME280_temperature;BME280_humidity;BME280_pressure;Samples;Min_cycle;Max_cycle;Signal;HPM_P1;HPM_P2
2021/08/30 00:02:13;;;;;;;3.40;1.75;;;17.10;99.90;;;;;;5072693;28;20020;-82
2021/08/30 00:04:39;;;;;;;2.65;1.70;;;17.10;99.90;;;;;;5073355;28;20100;-83
2021/08/30 00:07:04;;;;;;;3.45;1.95;;;17.10;99.90;;;;;;5073237;28;20024;-82
2021/08/30 00:09:30;;;;;;;6.15;1.77;;;17.10;99.90;;;;;;5072771;28;20021;-82
2021/08/30 00:11:56;;;;;;;4.95;2.17;;;17.00;99.90;;;;;;5072824;28;20024;-82
2021/08/30 00:14:22;;;;;;;2.83;1.80;;;17.00;99.90;;;;;;5072709;28;20527;-82
2021/08/30 00:16:48;;;;;;;4.25;1.75;;;17.00;99.90;;;;;;5072382;28;20095;-82
2021/08/30 00:19:13;;;;;;;3.78;1.77;;;17.00;99.90;;;;;;5072625;28;20032;-83
2021/08/30 00:21:39;;;;;;;3.47;1.75;;;17.00;99.90;;;;;;5072499;28;20024;-82
2021/08/30 00:24:05;;;;;;;6.38;1.88;;;17.00;99.90;;;;;;5072626;28;20461;-83
2021/08/30 00:26:31;;;;;;;4.75;2.00;;;17.00;99.90;;;;;;5072386;28;20032;-82
2021/08/30 00:28:56;;;;;;;5.57;2.20;;;16.90;99.90;;;;;;5072660;28;20016;-83
2021/08/30 00:31:26;;;;;;;5.07;2.08;;;16.90;99.90;;;;;;5072412;28;20393;-83
2021/08/30 00:33:53;;;;;;;3.03;1.88;;;16.80;99.90;;;;;;5070847;28;20519;-83
2021/08/30 00:36:18;;;;;;;3.92;1.92;;;16.80;99.90;;;;;;5072205;28;20507;-83
2021/08/30 00:38:44;;;;;;;4.75;1.98;;;16.70;99.90;;;;;;5072350;28;20119;-83
2021/08/30 00:41:10;;;;;;;5.18;1.90;;;16.70;99.90;;;;;;5072323;28;20021;-83
2021/08/30 00:43:35;;;;;;;3.95;1.85;;;16.70;99.90;;;;;;5072127;28;20030;-83
2021/08/30 00:46:05;;;;;;;3.72;2.00;;;16.70;99.90;;;;;;5072304;28;20032;-83
2021/08/30 00:48:31;;;;;;;6.20;2.53;;;16.60;99.90;;;;;;5072270;28;20028;-83
2021/08/30 00:50:59;;;;;;;6.70;2.20;;;16.60;99.90;;;;;;5072017;28;20028;-83
2021/08/30 00:53:25;;;;;;;5.50;2.28;;;16.60;99.90;;;;;;5072111;28;20520;-83
2021/08/30 00:55:50;;;;;;;4.45;2.17;;;16.60;99.90;;;;;;5071521;28;20021;-82
2021/08/30 00:58:16;;;;;;;3.42;2.28;;;16.60;99.90;;;;;;5071843;28;20051;-82
2021/08/30 01:00:43;;;;;;;6.05;1.98;;;16.60;99.90;;;;;;5072060;28;20021;-82
2021/08/30 01:03:09;;;;;;;5.10;2.22;;;16.60;99.90;;;;;;5071988;28;20389;-82
2021/08/30 01:05:39;;;;;;;5.40;2.50;;;16.50;99.90;;;;;;5071684;28;20073;-82
2021/08/30 01:08:21;;;;;;;4.40;2.25;;;16.50;99.90;;;;;;5071813;28;20519;-83
2021/08/30 01:10:53;;;;;;;4.05;2.33;;;16.50;99.90;;;;;;5071386;28;20016;-83
2021/08/30 01:13:32;;;;;;;4.50;2.13;;;16.40;99.90;;;;;;5070344;28;20115;-83
2021/08/30 01:16:01;;;;;;;5.25;2.90;;;16.40;99.90;;;;;;5071456;28;20040;-82
2021/08/30 01:18:30;;;;;;;3.70;2.40;;;16.40;99.90;;;;;;5071521;28;20040;-83
2021/08/30 01:21:02;;;;;;;4.38;2.58;;;16.40;99.90;;;;;;5071529;28;20056;-82
2021/08/30 01:23:28;;;;;;;5.43;2.83;;;16.30;99.90;;;;;;5071578;28;20024;-83
2021/08/30 01:26:01;;;;;;;3.72;2.10;;;16.30;99.90;;;;;;5069947;28;20113;-82
2021/08/30 01:28:35;;;;;;;4.88;2.20;;;16.30;99.90;;;;;;5071429;28;20048;-83
2021/08/30 01:31:13;;;;;;;3.60;2.60;;;16.30;99.90;;;;;;5071314;28;20546;-83
2021/08/30 01:33:41;;;;;;;2.83;2.17;;;16.20;99.90;;;;;;5071577;28;20029;-82
2021/08/30 01:36:08;;;;;;;4.40;2.65;;;16.20;99.90;;;;;;5071181;28;20457;-83
2021/08/30 01:38:34;;;;;;;3.65;2.30;;;16.20;99.90;;;;;;5071145;28;20496;-82
2021/08/30 01:41:01;;;;;;;4.85;2.72;;;16.20;99.90;;;;;;5070109;28;20070;-83
2021/08/30 01:43:28;;;;;;;4.45;2.83;;;16.10;99.90;;;;;;5071256;28;20035;-83
2021/08/30 01:45:55;;;;;;;5.43;2.75;;;16.20;99.90;;;;;;5071254;28;20028;-82
2021/08/30 01:48:21;;;;;;;5.63;2.50;;;16.10;99.90;;;;;;5070925;28;20039;-83
2021/08/30 01:50:47;;;;;;;4.13;2.40;;;16.10;99.90;;;;;;5071195;28;20013;-83
2021/08/30 01:53:13;;;;;;;5.70;2.60;;;16.00;99.90;;;;;;5070905;28;20032;-82
2021/08/30 01:55:45;;;;;;;5.32;2.42;;;16.00;99.90;;;;;;5071109;28;20081;-82
2021/08/30 02:03:17;;;;;;;4.25;2.40;;;15.90;99.90;;;;;;5070896;28;20028;-82
2021/08/30 02:05:43;;;;;;;5.65;2.40;;;15.90;99.90;;;;;;5070783;28;20024;-82
2021/08/30 02:08:10;;;;;;;8.35;2.45;;;15.90;99.90;;;;;;5069447;28;20059;-82
2021/08/30 02:10:36;;;;;;;4.70;2.70;;;15.90;99.90;;;;;;5070669;28;20020;-82
2021/08/30 02:13:02;;;;;;;6.15;2.80;;;15.90;99.90;;;;;;5070771;28;20027;-82
2021/08/30 02:15:28;;;;;;;5.82;2.65;;;15.90;99.90;;;;;;5070506;28;20017;-83
2021/08/30 02:18:02;;;;;;;3.63;2.60;;;15.90;99.90;;;;;;5069837;28;20043;-82
2021/08/30 02:20:30;;;;;;;7.68;2.65;;;15.90;99.90;;;;;;5069072;28;20025;-82
2021/08/30 02:22:58;;;;;;;4.47;2.50;;;15.90;99.90;;;;;;5069343;28;20488;-82
2021/08/30 02:25:25;;;;;;;5.45;2.83;;;15.80;99.90;;;;;;5070430;28;20028;-82
2021/08/30 02:27:57;;;;;;;3.53;2.38;;;15.90;99.90;;;;;;5070291;28;20024;-82
2021/08/30 02:30:36;;;;;;;4.43;2.33;;;15.90;99.90;;;;;;5070347;28;20043;-83
2021/08/30 02:33:08;;;;;;;7.15;2.17;;;15.90;99.90;;;;;;5070003;28;20112;-82
2021/08/30 02:35:38;;;;;;;5.60;2.50;;;15.80;99.90;;;;;;5068812;28;20490;-82
2021/08/30 02:38:04;;;;;;;6.30;2.72;;;15.80;99.90;;;;;;5069821;28;20033;-82
2021/08/30 02:40:31;;;;;;;3.97;2.28;;;15.70;99.90;;;;;;5070315;28;20045;-82
2021/08/30 02:42:59;;;;;;;4.63;2.72;;;15.70;99.90;;;;;;5069886;28;20495;-82
2021/08/30 02:45:27;;;;;;;3.83;2.55;;;15.70;99.90;;;;;;5069966;28;20077;-82
2021/08/30 02:47:54;;;;;;;3.47;2.30;;;15.80;99.90;;;;;;5069872;28;20058;-82
2021/08/30 02:50:22;;;;;;;3.22;2.30;;;15.80;99.90;;;;;;5069682;28;20401;-82
2021/08/30 02:52:50;;;;;;;4.65;2.55;;;15.70;99.90;;;;;;5069991;28;20123;-82
2021/08/30 02:55:16;;;;;;;3.13;2.40;;;15.70;99.90;;;;;;5069704;28;20020;-82
2021/08/30 02:57:43;;;;;;;5.97;2.67;;;15.70;99.90;;;;;;5069748;28;20447;-82
2021/08/30 03:00:10;;;;;;;5.35;2.70;;;15.70;99.90;;;;;;5069856;28;20031;-82
2021/08/30 03:02:37;;;;;;;3.35;2.45;;;15.70;99.90;;;;;;5068234;28;20103;-82
2021/08/30 03:05:03;;;;;;;5.18;2.65;;;15.70;99.90;;;;;;5069627;28;20086;-82
2021/08/30 03:07:30;;;;;;;3.83;1.98;;;15.70;99.90;;;;;;5069606;28;20021;-82
2021/08/30 03:09:57;;;;;;;4.55;2.60;;;15.70;99.90;;;;;;5068363;28;20020;-82
2021/08/30 03:12:25;;;;;;;4.38;2.30;;;15.70;99.90;;;;;;5069531;28;20386;-83
2021/08/30 03:14:54;;;;;;;4.15;2.40;;;15.70;99.90;;;;;;5069984;28;20013;-83
2021/08/30 03:17:22;;;;;;;4.25;2.50;;;15.70;99.90;;;;;;5069503;28;20056;-82
2021/08/30 03:19:51;;;;;;;3.30;2.05;;;15.60;99.90;;;;;;5075934;28;20051;-83
2021/08/30 03:22:18;;;;;;;5.45;2.47;;;15.60;99.90;;;;;;5077362;28;20100;-82
2021/08/30 03:24:44;;;;;;;3.28;2.20;;;15.60;99.90;;;;;;5083763;28;20448;-82
2021/08/30 03:27:11;;;;;;;6.20;3.20;;;15.50;99.90;;;;;;5069651;28;20021;-82
2021/08/30 03:29:38;;;;;;;4.93;2.30;;;15.50;99.90;;;;;;5067955;28;20123;-83
2021/08/30 03:32:07;;;;;;;4.35;2.58;;;15.50;99.90;;;;;;5069384;28;20222;-82
2021/08/30 03:34:35;;;;;;;5.53;2.90;;;15.50;99.90;;;;;;5072045;28;20031;-82
2021/08/30 03:37:02;;;;;;;6.00;2.60;;;15.60;99.90;;;;;;5073474;28;20017;-82
2021/08/30 03:39:28;;;;;;;4.38;2.40;;;15.50;99.90;;;;;;5072275;28;20024;-82
2021/08/30 03:41:56;;;;;;;3.85;2.10;;;15.50;99.90;;;;;;5073781;28;20082;-83
2021/08/30 03:44:23;;;;;;;4.25;2.20;;;15.50;99.90;;;;;;5073424;28;20040;-82
2021/08/30 03:46:51;;;;;;;4.35;2.17;;;15.50;99.90;;;;;;5073530;28;20028;-82
2021/08/30 03:49:17;;;;;;;5.68;2.40;;;15.50;99.90;;;;;;5073362;28;20013;-82
2021/08/30 03:51:43;;;;;;;5.65;2.13;;;15.50;99.90;;;;;;5073213;28;20116;-82
2021/08/30 03:54:10;;;;;;;4.93;2.47;;;15.40;99.90;;;;;;5073282;28;20021;-82
2021/08/30 03:56:36;;;;;;;5.43;2.60;;;15.50;99.90;;;;;;5073075;28;20059;-82
2021/08/30 03:59:03;;;;;;;4.25;2.45;;;15.50;99.90;;;;;;5073037;28;20060;-82
2021/08/30 04:01:29;;;;;;;3.92;2.40;;;15.50;99.90;;;;;;5073035;28;20020;-82
2021/08/30 04:03:58;;;;;;;3.90;2.13;;;15.40;99.90;;;;;;5072885;28;20078;-83
2021/08/30 04:06:25;;;;;;;4.05;2.67;;;15.40;99.90;;;;;;5073405;28;20024;-82
2021/08/30 04:08:52;;;;;;;7.30;2.75;;;15.30;99.90;;;;;;5072706;28;20032;-84
2021/08/30 04:11:19;;;;;;;3.53;2.28;;;15.40;99.90;;;;;;5071410;28;20369;-82
2021/08/30 04:13:45;;;;;;;5.82;2.85;;;15.30;99.90;;;;;;5071663;28;20024;-82
2021/08/30 04:16:11;;;;;;;6.10;2.80;;;15.30;99.90;;;;;;5072665;28;20095;-83
2021/08/30 04:18:37;;;;;;;7.22;2.50;;;15.30;99.90;;;;;;5104969;28;20072;-82
2021/08/30 04:21:03;;;;;;;5.20;2.13;;;15.30;99.90;;;;;;5073045;28;20054;-83
2021/08/30 04:23:30;;;;;;;3.88;2.40;;;15.30;99.90;;;;;;5072844;28;20029;-82
2021/08/30 04:25:56;;;;;;;4.78;2.72;;;15.30;99.90;;;;;;5072700;28;20035;-83
2021/08/30 04:28:22;;;;;;;10.63;2.72;;;15.30;99.90;;;;;;5071381;28;20024;-82
2021/08/30 04:30:48;;;;;;;5.28;2.70;;;15.30;99.90;;;;;;5072633;28;20017;-82
2021/08/30 04:33:16;;;;;;;6.82;2.75;;;15.30;99.90;;;;;;5072184;28;20020;-82
2021/08/30 04:35:42;;;;;;;3.75;2.35;;;15.20;99.90;;;;;;5072581;28;20029;-82
2021/08/30 04:38:09;;;;;;;4.22;2.67;;;15.20;99.90;;;;;;5072285;28;20033;-82
2021/08/30 04:40:37;;;;;;;7.03;2.67;;;15.20;99.90;;;;;;5071045;28;20032;-82
2021/08/30 04:43:03;;;;;;;7.53;2.65;;;15.20;99.90;;;;;;5070900;28;20028;-83
2021/08/30 04:45:29;;;;;;;5.05;2.63;;;15.20;99.90;;;;;;5071687;28;20032;-82
2021/08/30 04:47:54;;;;;;;5.47;2.70;;;15.20;99.90;;;;;;5072663;28;20016;-82
2021/08/30 04:50:20;;;;;;;5.60;2.50;;;15.20;99.90;;;;;;5075933;28;20028;-82
2021/08/30 04:52:46;;;;;;;4.63;2.47;;;15.20;99.90;;;;;;5087888;28;20557;-82
2021/08/30 04:55:12;;;;;;;6.53;2.85;;;15.10;99.90;;;;;;5083939;28;20111;-82
2021/08/30 04:57:37;;;;;;;5.20;2.42;;;15.10;99.90;;;;;;5088940;28;20035;-82
2021/08/30 05:00:07;;;;;;;4.68;2.30;;;15.10;99.90;;;;;;5085054;28;20017;-82
2021/08/30 05:02:33;;;;;;;4.78;2.40;;;15.20;99.90;;;;;;5083458;28;20019;-82
2021/08/30 05:04:59;;;;;;;6.35;2.90;;;15.10;99.90;;;;;;5087164;28;20024;-82
2021/08/30 05:07:25;;;;;;;5.65;2.55;;;15.10;99.90;;;;;;5082105;28;20037;-82
2021/08/30 05:09:50;;;;;;;5.05;2.45;;;15.10;99.90;;;;;;5088303;28;20099;-82
2021/08/30 05:12:16;;;;;;;4.85;2.53;;;15.10;99.90;;;;;;5085769;28;20020;-82
2021/08/30 05:14:42;;;;;;;6.13;2.63;;;15.10;99.90;;;;;;5080984;28;20028;-82
2021/08/30 05:17:07;;;;;;;6.07;2.88;;;15.10;99.90;;;;;;5086147;28;20040;-83
2021/08/30 05:19:33;;;;;;;4.35;2.50;;;15.10;99.90;;;;;;5082751;28;20032;-82
2021/08/30 05:21:59;;;;;;;5.85;2.95;;;15.10;99.90;;;;;;5096106;28;20016;-82
2021/08/30 05:24:24;;;;;;;4.05;2.72;;;15.10;99.90;;;;;;5090352;28;20032;-82
2021/08/30 05:26:50;;;;;;;7.25;2.92;;;15.00;99.90;;;;;;5086796;28;20439;-82
2021/08/30 05:29:16;;;;;;;5.95;2.70;;;15.10;99.90;;;;;;5088595;28;20024;-82
2021/08/30 05:31:43;;;;;;;5.22;2.58;;;15.00;99.90;;;;;;5070950;28;20056;-82
2021/08/30 05:34:09;;;;;;;7.13;2.95;;;15.00;99.90;;;;;;5063346;28;20471;-83
2021/08/30 05:36:34;;;;;;;6.88;3.10;;;15.00;99.90;;;;;;5071082;28;20074;-83
2021/08/30 05:39:00;;;;;;;6.07;2.90;;;15.10;99.90;;;;;;5071104;28;20504;-83
2021/08/30 05:41:26;;;;;;;4.40;2.80;;;15.10;99.90;;;;;;5071050;28;20024;-82
2021/08/30 05:43:51;;;;;;;6.18;2.88;;;15.10;99.90;;;;;;5071100;28;20420;-83
2021/08/30 05:46:17;;;;;;;5.95;2.65;;;15.10;99.90;;;;;;5071119;28;20027;-83
2021/08/30 05:48:45;;;;;;;6.53;3.00;;;15.10;99.90;;;;;;5071081;28;20036;-82
2021/08/30 05:51:11;;;;;;;7.93;2.85;;;15.10;99.90;;;;;;5063285;28;20021;-83
2021/08/30 05:53:36;;;;;;;5.65;2.90;;;15.10;99.90;;;;;;5069525;28;20084;-83
2021/08/30 05:56:02;;;;;;;7.43;3.35;;;15.10;99.90;;;;;;5079378;28;20229;-83
2021/08/30 05:58:28;;;;;;;6.20;3.20;;;15.10;99.90;;;;;;5069795;28;20033;-83
2021/08/30 06:00:53;;;;;;;7.22;3.15;;;15.10;99.90;;;;;;5078333;28;20492;-83
2021/08/30 06:03:19;;;;;;;5.18;2.88;;;15.20;99.90;;;;;;5072509;28;20283;-83
2021/08/30 06:05:45;;;;;;;9.18;2.97;;;15.20;99.90;;;;;;5070439;28;20017;-82
2021/08/30 06:08:10;;;;;;;5.05;2.90;;;15.30;99.90;;;;;;5070619;28;20016;-82
2021/08/30 06:10:36;;;;;;;8.82;3.17;;;15.30;99.90;;;;;;5070574;28;20071;-83
2021/08/30 06:13:02;;;;;;;10.10;3.70;;;15.30;99.90;;;;;;5068488;28;20077;-83
2021/08/30 06:15:27;;;;;;;6.70;3.05;;;15.40;99.90;;;;;;5067634;28;20021;-82
2021/08/30 06:17:53;;;;;;;6.07;2.97;;;15.40;99.90;;;;;;5066485;28;20048;-83
2021/08/30 06:20:19;;;;;;;9.25;3.03;;;15.50;99.90;;;;;;5068616;28;20488;-83
2021/08/30 06:22:45;;;;;;;7.05;2.95;;;15.50;99.90;;;;;;5068706;28;20040;-82
2021/08/30 06:25:11;;;;;;;7.82;2.72;;;15.60;99.90;;;;;;5068553;28;20017;-82
2021/08/30 06:27:37;;;;;;;5.38;2.97;;;15.70;99.90;;;;;;5068525;28;20168;-83
2021/08/30 06:30:03;;;;;;;6.95;3.58;;;15.80;99.90;;;;;;5069511;28;20012;-83
2021/08/30 06:32:29;;;;;;;3.97;2.42;;;15.90;99.90;;;;;;5070099;28;20048;-83
2021/08/30 06:34:54;;;;;;;8.13;2.78;;;16.00;99.90;;;;;;5070095;28;20051;-82
2021/08/30 06:37:20;;;;;;;6.68;2.88;;;16.10;99.90;;;;;;5070204;28;20503;-82
2021/08/30 06:39:46;;;;;;;6.78;3.50;;;16.10;99.90;;;;;;5069954;28;20055;-82
2021/08/30 06:42:11;;;;;;;6.60;2.70;;;16.20;99.90;;;;;;5070170;28;20029;-83
2021/08/30 06:44:37;;;;;;;5.43;3.10;;;16.20;99.90;;;;;;5069870;28;20028;-82
2021/08/30 06:47:03;;;;;;;4.82;2.90;;;16.30;99.90;;;;;;5069844;28;20024;-83
2021/08/30 06:49:29;;;;;;;7.55;3.45;;;16.40;99.90;;;;;;5069956;28;20132;-83
2021/08/30 06:51:55;;;;;;;6.75;3.25;;;16.40;99.90;;;;;;5068316;28;20023;-83
2021/08/30 06:54:21;;;;;;;10.65;3.17;;;16.50;99.90;;;;;;5069905;28;20107;-83
2021/08/30 06:56:46;;;;;;;5.47;2.90;;;16.50;99.90;;;;;;5069808;28;20401;-82
2021/08/30 06:59:12;;;;;;;10.07;3.10;;;16.60;99.90;;;;;;5069735;28;20119;-82
2021/08/30 07:01:38;;;;;;;11.48;2.90;;;16.60;99.90;;;;;;5069625;28;20032;-82
2021/08/30 07:04:04;;;;;;;9.00;3.33;;;16.70;99.90;;;;;;5069811;28;20031;-82
2021/08/30 07:06:30;;;;;;;9.18;3.45;;;16.70;99.90;;;;;;5069843;28;20024;-83
2021/08/30 07:08:55;;;;;;;7.30;3.28;;;16.80;99.90;;;;;;5067806;28;20397;-82
2021/08/30 07:11:21;;;;;;;7.43;3.63;;;17.00;99.90;;;;;;5069597;28;20021;-82
2021/08/30 07:13:47;;;;;;;6.32;3.20;;;17.00;99.90;;;;;;5069594;28;20190;-83
2021/08/30 07:16:13;;;;;;;7.18;2.65;;;17.10;99.90;;;;;;5069227;28;20025;-83
2021/08/30 07:18:39;;;;;;;11.10;3.20;;;17.20;99.90;;;;;;5069418;28;20056;-83
2021/08/30 07:21:05;;;;;;;7.78;3.10;;;17.30;99.90;;;;;;5069546;28;20024;-83
2021/08/30 07:23:34;;;;;;;7.43;2.97;;;17.30;99.90;;;;;;5069565;28;20024;-83
2021/08/30 07:26:00;;;;;;;5.85;3.08;;;17.40;99.90;;;;;;5069371;28;20020;-83
2021/08/30 07:28:26;;;;;;;7.20;3.30;;;17.50;99.90;;;;;;5069555;28;20542;-83
2021/08/30 07:30:51;;;;;;;6.35;3.17;;;17.50;99.90;;;;;;5069833;28;20103;-83
2021/08/30 07:33:17;;;;;;;10.02;3.00;;;17.60;99.90;;;;;;5069612;28;20024;-83
2021/08/30 07:35:43;;;;;;;7.47;2.97;;;17.60;99.90;;;;;;5069401;28;20109;-83
2021/08/30 07:38:08;;;;;;;5.93;2.78;;;17.70;99.90;;;;;;5069147;28;20408;-83
2021/08/30 07:40:34;;;;;;;5.57;3.00;;;17.70;99.90;;;;;;5069452;28;20021;-82
2021/08/30 07:43:00;;;;;;;9.93;2.80;;;17.80;99.90;;;;;;5069049;28;20100;-82
2021/08/30 07:45:25;;;;;;;8.13;3.10;;;17.90;99.90;;;;;;5069283;28;20032;-82
2021/08/30 07:47:51;;;;;;;7.25;2.90;;;18.00;99.90;;;;;;5069165;28;20025;-83
2021/08/30 07:50:18;;;;;;;6.55;2.78;;;18.10;99.90;;;;;;5069075;28;20016;-82
2021/08/30 07:52:45;;;;;;;8.52;3.22;;;18.20;99.90;;;;;;5067969;28;20484;-83
2021/08/30 07:55:11;;;;;;;6.35;2.65;;;18.20;99.90;;;;;;5068945;28;20027;-82
2021/08/30 07:57:36;;;;;;;7.55;3.35;;;18.30;99.90;;;;;;5068967;28;20054;-82
2021/08/30 08:00:04;;;;;;;8.35;3.22;;;18.40;99.90;;;;;;5069167;28;20040;-82
2021/08/30 08:02:30;;;;;;;7.95;2.92;;;18.50;99.90;;;;;;5069006;28;20025;-82
2021/08/30 08:04:55;;;;;;;6.13;2.65;;;18.50;99.90;;;;;;5069258;28;20036;-82
2021/08/30 08:07:21;;;;;;;6.18;2.92;;;18.60;99.90;;;;;;5068890;28;20393;-82
2021/08/30 08:09:47;;;;;;;9.15;3.03;;;18.70;99.90;;;;;;5068925;28;20025;-82
2021/08/30 08:12:12;;;;;;;5.93;2.83;;;18.80;99.90;;;;;;5069305;28;20052;-82
2021/08/30 08:14:38;;;;;;;5.85;3.00;;;18.90;99.90;;;;;;5069086;28;20021;-82
2021/08/30 08:17:04;;;;;;;9.00;2.85;;;18.90;99.90;;;;;;5068573;28;20040;-82
2021/08/30 08:19:29;;;;;;;9.23;3.00;;;19.10;99.90;;;;;;5069134;28;20105;-82
2021/08/30 08:21:55;;;;;;;9.30;3.00;;;19.20;99.90;;;;;;5072017;28;20432;-82
2021/08/30 08:24:24;;;;;;;10.20;2.72;;;19.20;99.90;;;;;;5072552;28;20031;-83
2021/08/30 08:26:50;;;;;;;8.57;3.10;;;19.40;99.90;;;;;;5072752;28;20020;-82
2021/08/30 08:29:16;;;;;;;8.32;2.55;;;19.40;99.90;;;;;;5072571;28;20024;-82
2021/08/30 08:31:42;;;;;;;10.00;3.20;;;19.50;99.90;;;;;;5072317;28;20380;-83
2021/08/30 08:34:07;;;;;;;6.28;2.78;;;19.50;99.90;;;;;;5072532;28;20046;-83
2021/08/30 08:36:33;;;;;;;6.70;2.58;;;19.60;99.90;;;;;;5072407;28;20025;-83
2021/08/30 08:38:59;;;;;;;6.60;2.72;;;19.60;99.90;;;;;;5072240;28;20068;-82
2021/08/30 08:41:24;;;;;;;6.80;3.40;;;19.70;99.90;;;;;;5072148;28;20091;-83
2021/08/30 08:43:55;;;;;;;7.45;3.03;;;19.80;99.90;;;;;;5072373;28;20029;-83
2021/08/30 08:46:22;;;;;;;7.25;3.20;;;19.90;99.90;;;;;;5072218;28;20021;-83
2021/08/30 08:48:48;;;;;;;9.82;2.83;;;19.90;99.90;;;;;;5072620;28;20039;-83
2021/08/30 08:51:15;;;;;;;7.88;2.88;;;19.90;99.90;;;;;;5072135;28;20469;-82
2021/08/30 08:53:44;;;;;;;6.10;3.15;;;20.00;99.90;;;;;;5072030;28;20016;-82
2021/08/30 08:56:14;;;;;;;6.63;2.70;;;20.10;99.90;;;;;;5072122;28;20024;-82
2021/08/30 08:58:40;;;;;;;7.50;2.90;;;20.10;99.90;;;;;;5071905;28;20028;-83
2021/08/30 09:01:10;;;;;;;6.82;2.63;;;20.20;99.90;;;;;;5072403;28;20012;-82
2021/08/30 09:03:42;;;;;;;8.27;3.47;;;20.40;99.90;;;;;;5071798;28;20558;-82
2021/08/30 09:06:08;;;;;;;5.30;2.70;;;20.40;99.90;;;;;;5071861;28;20028;-82
2021/08/30 09:08:42;;;;;;;7.22;2.47;;;20.50;99.90;;;;;;5071740;28;20476;-82
2021/08/30 09:11:20;;;;;;;7.93;2.90;;;20.60;99.90;;;;;;5070318;28;20056;-82
2021/08/30 09:13:54;;;;;;;7.80;2.80;;;20.60;99.90;;;;;;5070391;28;20274;-82
2021/08/30 09:16:22;;;;;;;7.10;2.88;;;20.70;99.90;;;;;;5071628;28;20020;-82
2021/08/30 09:18:48;;;;;;;8.32;2.80;;;20.70;99.90;;;;;;5071484;28;20037;-82
2021/08/30 09:21:17;;;;;;;6.65;2.55;;;20.80;99.90;;;;;;5071426;28;20028;-83
2021/08/30 09:23:45;;;;;;;7.68;3.28;;;20.90;99.90;;;;;;5071659;28;20031;-82
2021/08/30 09:26:18;;;;;;;8.82;3.28;;;20.90;99.90;;;;;;5071338;28;20515;-82
2021/08/30 09:28:57;;;;;;;6.97;2.70;;;21.00;99.90;;;;;;5071872;28;20452;-82
2021/08/30 09:31:23;;;;;;;8.77;2.83;;;21.10;99.90;;;;;;5071038;28;20020;-82
2021/08/30 09:33:52;;;;;;;7.78;2.70;;;21.10;99.90;;;;;;5071400;28;20040;-82
2021/08/30 09:36:17;;;;;;;7.10;2.65;;;21.20;99.90;;;;;;5071362;28;20070;-82
2021/08/30 09:38:43;;;;;;;10.77;3.08;;;21.30;99.90;;;;;;5071345;28;20131;-82
2021/08/30 09:41:11;;;;;;;6.78;2.75;;;21.30;99.90;;;;;;5071242;28;20416;-82
2021/08/30 09:43:37;;;;;;;5.57;2.72;;;21.40;99.90;;;;;;5071171;28;20024;-83
2021/08/30 09:46:04;;;;;;;7.03;2.67;;;21.50;99.90;;;;;;5070923;28;20016;-83
2021/08/30 09:48:31;;;;;;;7.22;2.85;;;21.60;99.90;;;;;;5071187;28;20020;-82
2021/08/30 09:51:04;;;;;;;5.78;2.83;;;21.70;99.90;;;;;;5071317;28;20017;-83
2021/08/30 09:53:32;;;;;;;8.50;2.90;;;21.80;99.90;;;;;;5070814;28;20074;-82
2021/08/30 09:55:59;;;;;;;6.72;2.60;;;22.00;99.90;;;;;;5070904;28;20115;-82
2021/08/30 09:58:29;;;;;;;5.35;2.40;;;21.90;99.90;;;;;;5070736;28;20033;-83
2021/08/30 10:00:57;;;;;;;8.10;2.70;;;21.90;99.90;;;;;;5070906;28;20491;-82
2021/08/30 10:03:29;;;;;;;5.57;2.40;;;22.00;99.90;;;;;;5070560;28;20103;-82
2021/08/30 10:05:56;;;;;;;5.03;2.50;;;22.00;99.90;;;;;;5070775;28;20155;-82
2021/08/30 10:08:23;;;;;;;5.85;2.33;;;21.90;99.90;;;;;;5070445;28;20082;-82
2021/08/30 10:10:50;;;;;;;3.88;2.53;;;21.90;99.90;;;;;;5070488;28;20369;-82
2021/08/30 10:13:17;;;;;;;4.47;2.78;;;22.00;99.90;;;;;;5070617;28;20338;-82
2021/08/30 10:15:48;;;;;;;6.70;2.75;;;22.00;99.90;;;;;;5070410;28;20103;-82
2021/08/30 10:18:17;;;;;;;6.47;3.10;;;22.10;99.60;;;;;;5069115;28;20052;-83
2021/08/30 10:20:45;;;;;;;7.60;2.55;;;22.20;99.40;;;;;;5070232;28;20021;-81
2021/08/30 10:23:10;;;;;;;5.35;2.15;;;22.50;98.90;;;;;;5070247;28;20107;-81
2021/08/30 10:25:39;;;;;;;8.50;3.47;;;22.80;98.20;;;;;;5070042;28;20100;-82
2021/08/30 10:28:10;;;;;;;4.25;1.77;;;23.00;97.90;;;;;;5068876;28;20068;-81
2021/08/30 10:30:38;;;;;;;6.53;3.13;;;23.00;96.40;;;;;;5070339;28;20024;-82
2021/08/30 10:33:06;;;;;;;12.07;8.23;;;23.00;96.40;;;;;;5081510;28;20484;-82
2021/08/30 10:35:38;;;;;;;8.77;5.75;;;22.70;96.40;;;;;;5083850;28;20062;-81
2021/08/30 10:38:04;;;;;;;5.57;2.80;;;22.60;96.60;;;;;;5073848;28;20056;-81
2021/08/30 10:40:37;;;;;;;6.82;3.35;;;22.70;96.80;;;;;;5080233;28;20023;-82
2021/08/30 10:43:05;;;;;;;5.93;2.72;;;22.90;96.20;;;;;;5084275;28;20032;-82
2021/08/30 10:45:36;;;;;;;4.05;1.95;;;23.30;95.70;;;;;;5082407;28;20031;-82
2021/08/30 10:48:07;;;;;;;4.05;2.00;;;23.50;95.10;;;;;;5083565;28;20008;-81
2021/08/30 10:51:04;;;;;;;4.50;1.63;;;23.50;95.10;;;;;;5080752;28;20032;-81
2021/08/30 10:53:29;;;;;;;3.75;1.98;;;23.40;95.30;;;;;;5070185;28;20060;-85
2021/08/30 10:56:01;;;;;;;4.78;2.10;;;23.20;95.60;;;;;;5073621;28;20055;-83
2021/08/30 10:58:27;;;;;;;5.53;2.15;;;23.50;95.60;;;;;;5082920;28;20043;-83
2021/08/30 11:00:55;;;;;;;8.23;1.83;;;23.70;94.30;;;;;;5082411;28;20016;-84
2021/08/30 11:03:33;;;;;;;4.53;1.90;;;23.80;94.10;;;;;;5084949;28;20388;-82
2021/08/30 11:06:12;;;;;;;5.97;2.45;;;23.70;94.20;;;;;;5082702;28;20019;-83
2021/08/30 11:08:40;;;;;;;4.18;1.50;;;23.70;94.70;;;;;;5084220;28;20099;-89
2021/08/30 11:11:10;;;;;;;3.78;1.67;;;23.90;94.60;;;;;;5081504;28;20369;-88
2021/08/30 11:13:36;;;;;;;5.45;2.00;;;24.00;93.50;;;;;;5083495;28;20495;-83
2021/08/30 11:16:02;;;;;;;3.63;1.70;;;24.00;93.80;;;;;;5070067;28;20032;-83
2021/08/30 11:18:27;;;;;;;5.30;2.28;;;24.40;93.40;;;;;;5066916;28;20044;-82
2021/08/30 11:20:53;;;;;;;5.45;2.00;;;24.40;93.30;;;;;;5067341;28;20017;-83
2021/08/30 11:23:19;;;;;;;3.33;1.70;;;24.60;93.10;;;;;;5069085;28;20028;-72
2021/08/30 11:25:44;;;;;;;3.47;1.27;;;24.80;93.00;;;;;;5069050;28;20029;-73
2021/08/30 11:28:18;;;;;;;5.88;1.70;;;24.80;92.20;;;;;;5069115;28;20120;-73
2021/08/30 11:30:45;;;;;;;2.60;1.67;;;24.70;92.30;;;;;;5068966;28;20030;-72
2021/08/30 11:33:24;;;;;;;4.40;1.63;;;24.80;92.50;;;;;;5068870;28;20079;-76
2021/08/30 11:35:50;;;;;;;5.40;1.98;;;25.10;91.70;;;;;;5056143;28;20020;-73
2021/08/30 11:38:17;;;;;;;2.78;1.35;;;25.00;91.90;;;;;;5076580;28;20033;-72
2021/08/30 11:40:43;;;;;;;2.28;1.40;;;24.80;91.90;;;;;;5068703;28;20036;-72
2021/08/30 11:43:14;;;;;;;2.58;1.40;;;25.00;91.90;;;;;;5069187;28;20029;-81
2021/08/30 11:45:40;;;;;;;3.20;1.50;;;25.00;91.50;;;;;;5074714;28;20120;-73
2021/08/30 11:48:12;;;;;;;2.63;1.20;;;25.00;91.40;;;;;;5078604;28;20495;-72
2021/08/30 11:50:39;;;;;;;2.85;1.25;;;25.10;91.20;;;;;;5068471;28;20078;-73
2021/08/30 11:53:10;;;;;;;3.08;1.13;;;25.10;91.00;;;;;;5069131;28;20036;-73
2021/08/30 11:55:36;;;;;;;2.85;1.30;;;25.20;91.50;;;;;;5071539;28;20024;-72
2021/08/30 11:58:04;;;;;;;1.90;0.70;;;25.40;91.10;;;;;;5073066;28;20149;-73
2021/08/30 12:00:31;;;;;;;1.20;0.70;;;25.60;90.80;;;;;;5072811;28;20028;-73
2021/08/30 12:02:59;;;;;;;1.90;1.13;;;25.70;90.50;;;;;;5076361;28;20039;-78
2021/08/30 12:05:27;;;;;;;3.88;1.10;;;25.80;90.30;;;;;;5088721;28;20016;-72
2021/08/30 12:07:54;;;;;;;3.58;0.95;;;25.60;90.80;;;;;;5085470;28;20032;-72
2021/08/30 12:10:21;;;;;;;2.63;1.15;;;25.50;90.70;;;;;;5084828;28;20017;-72
2021/08/30 12:15:22;;;;;;;;;;;25.30;90.50;;;;;;5090155;28;20320;-72
2021/08/30 12:17:51;;;;;;;1.20;0.80;;;25.20;90.90;;;;;;5080866;28;19916;-73
2021/08/30 12:20:22;;;;;;;5.15;1.23;;;25.20;90.60;;;;;;5083241;28;20013;-72
2021/08/30 12:22:54;;;;;;;1.08;0.68;;;25.30;91.00;;;;;;5069723;28;20027;-73
2021/08/30 12:25:29;;;;;;;3.55;0.80;;;25.40;90.90;;;;;;5073814;28;20108;-73
2021/08/30 12:27:56;;;;;;;8.10;3.58;;;25.50;90.60;;;;;;5072844;28;20016;-72
2021/08/30 12:30:32;;;;;;;5.00;1.35;;;25.60;90.50;;;;;;5072806;28;20166;-73
2021/08/30 12:33:01;;;;;;;1.88;1.17;;;25.70;90.00;;;;;;5072108;28;20190;-73
2021/08/30 12:35:33;;;;;;;1.23;0.80;;;25.80;89.70;;;;;;5071841;28;20112;-72
2021/08/30 12:38:03;;;;;;;3.65;1.05;;;25.50;90.10;;;;;;5072007;28;20029;-73
2021/08/30 12:40:31;;;;;;;1.80;0.95;;;25.70;89.90;;;;;;5071921;28;20023;-73
2021/08/30 12:42:57;;;;;;;3.38;1.15;;;25.70;90.00;;;;;;5072366;28;20025;-77
2021/08/30 12:45:24;;;;;;;3.78;0.98;;;25.70;90.00;;;;;;5071742;28;20023;-73
2021/08/30 12:47:50;;;;;;;1.42;1.10;;;25.60;90.10;;;;;;5072762;28;20033;-72
2021/08/30 12:50:15;;;;;;;1.65;1.00;;;25.80;89.50;;;;;;5073338;28;20534;-72
2021/08/30 12:52:41;;;;;;;6.05;0.90;;;25.90;88.20;;;;;;5071813;28;20032;-72
2021/08/30 12:55:09;;;;;;;2.47;0.95;;;25.90;88.00;;;;;;5073270;28;20032;-72